Latest Weather Observations for Nerriga

IDN60801

Issued at 4:05 pm EST Thursday 2 October 2014 (issued every 30 minutes, with the page automatically refreshed every 10 minutes)

About weather observations | Map of weather stations | Latest weather observations for NSW | Other Formats
Station Details ID: 069128 Name: NERRIGA AWS Lat: -35.11 Lon: 150.08 Height: 622.0 m
Data from the previous 72 hours. | See also: Recent months at Nerriga
Date/Time
EST
Temp
°C
App
Temp
°C
Dew
Point
Rel
Hum
%
Delta-T
°C
Wind Press
QNH
hPa
Press
MSL
hPa
Rain
since 9 am
mm
Dir
 
Spd
km/h
Gust
km/h
Spd
kts
Gust
kts
02/04:00pm 19.0 15.7 6.2 43 6.5 WNW 13 20 7 11 1017.9 1017.1 0.0
02/03:30pm 19.0 14.1 5.1 40 7.0 W 20 26 11 14 1017.8 1017.0 0.0
02/03:00pm 18.9 13.9 6.4 44 6.4 NW 22 33 12 18 1017.8 1017.0 0.0
02/02:30pm 18.4 12.5 5.9 44 6.3 NW 26 35 14 19 1017.8 1017.0 0.0
02/02:00pm 18.6 14.0 6.4 45 6.2 WNW 20 30 11 16 1018.2 1017.4 0.0
02/01:30pm 18.8 13.9 6.9 46 6.2 NW 22 33 12 18 1018.4 1017.7 0.0
02/01:00pm 18.5 13.9 6.4 45 6.2 NW 20 32 11 17 1018.7 1017.9 0.0
02/12:30pm 17.9 12.6 4.8 42 6.5 NW 22 32 12 17 1019.1 1018.3 0.0
02/12:00pm 17.2 12.4 5.5 46 5.8 WNW 20 24 11 13 1019.4 1018.6 0.0
02/11:00am 15.7 11.8 3.5 44 5.8 WNW 13 22 7 12 1020.1 1019.4 0.0
02/10:30am 14.3 10.6 4.3 51 4.8 NW 13 22 7 12 1020.7 1019.9 0.0
02/10:00am 13.0 9.2 3.9 54 4.2 WNW 13 22 7 12 1021.1 1020.3 0.0
02/09:30am 11.7 8.5 3.2 56 3.9 WNW 9 15 5 8 1021.5 1020.8 0.0
02/09:00am 10.7 8.1 4.4 65 2.9 NNW 7 13 4 7 1021.7 1021.0 0.0
02/08:30am 8.6 6.9 3.8 72 2.2 E 2 4 1 2 1021.7 1021.0 0.0
02/08:00am 6.9 5.1 3.2 77 1.6 E 2 6 1 3 1021.6 1020.9 0.0
02/07:30am 5.1 3.3 3.4 89 0.7 E 2 6 1 3 1021.7 1021.0 0.0
02/07:00am 3.5 1.3 3.1 97 0.2 E 4 7 2 4 1021.6 1020.9 0.0
02/06:30am 2.5 0.9 2.2 98 0.1 CALM 0 0 0 0 1021.5 1020.8 0.0
02/06:00am 1.4 -0.4 1.1 98 0.1 E 0 0 0 0 1021.6 1020.9 0.0
02/05:30am 0.1 -1.9 -0.2 98 0.1 CALM 0 4 0 2 1021.3 1020.6 0.0
02/05:00am 1.1 -0.8 0.8 98 0.1 CALM 0 2 0 1 1021.2 1020.5 0.0
02/04:30am 1.4 -0.8 1.1 98 0.1 E 2 4 1 2 1021.1 1020.3 0.0
02/04:00am 1.0 -0.9 0.7 98 0.1 CALM 0 0 0 0 1021.2 1020.5 0.0
02/03:30am 0.9 -1.0 0.6 98 0.1 CALM 0 0 0 0 1021.4 1020.7 0.0
02/03:00am 0.9 -1.0 0.6 98 0.1 CALM 0 0 0 0 1021.4 1020.7 0.0
02/02:30am 1.8 0.0 1.5 98 0.1 CALM 0 0 0 0 1021.4 1020.7 0.0
02/02:00am 1.8 0.0 1.5 98 0.1 CALM 0 0 0 0 1021.5 1020.8 0.0
02/01:30am 1.8 0.0 1.5 98 0.1 CALM 0 0 0 0 1022.2 1021.4 0.0
02/01:00am 2.7 1.0 2.1 96 0.2 CALM 0 2 0 1 1022.3 1021.5 0.0
02/12:30am 3.1 1.1 2.5 96 0.2 E 2 4 1 2 1022.6 1021.9 0.0
02/12:00am 4.3 2.4 3.1 92 0.5 E 2 4 1 2 1022.7 1022.0 0.0
 
Date/Time
EST
Temp
°C
App
Temp
°C
Dew
Point
Rel
Hum
%
Delta-T
°C
Wind Press
QNH
hPa
Press
MSL
hPa
Rain
since 9 am
mm
Dir
 
Spd
km/h
Gust
km/h
Spd
kts
Gust
kts
01/11:30pm 5.2 3.5 4.2 93 0.4 E 2 4 1 2 1022.9 1022.2 0.0
01/11:00pm 3.2 1.4 1.3 87 0.8 E 0 0 0 0 1023.0 1022.3 0.0
01/10:30pm 6.4 4.3 3.7 83 1.2 E 4 9 2 5 1022.7 1022.0 0.0
01/10:00pm 5.1 3.2 2.6 84 1.1 E 2 4 1 2 1022.9 1022.2 0.0
01/09:30pm 5.6 3.3 2.6 81 1.3 E 4 7 2 4 1022.9 1022.2 0.0
01/09:00pm 5.9 4.3 2.5 79 1.4 CALM 0 0 0 0 1022.8 1022.1 0.0
01/08:30pm 7.3 5.1 3.2 75 1.8 E 4 6 2 3 1022.5 1021.7 0.0
01/08:00pm 7.6 5.7 3.1 73 2.0 E 2 7 1 4 1022.2 1021.4 0.0
01/07:30pm 7.6 4.4 2.9 72 2.1 E 9 15 5 8 1021.9 1021.2 0.0
01/07:00pm 8.2 4.2 2.9 69 2.3 E 13 19 7 10 1021.6 1020.9 0.0
01/06:30pm 8.9 4.2 3.1 67 2.6 E 17 24 9 13 1021.2 1020.5 0.0
01/06:00pm 9.7 4.0 2.6 61 3.1 ENE 22 30 12 16 1020.4 1019.6 0.0
01/05:30pm 11.9 7.8 -3.4 34 6.0 S 9 11 5 6 1020.0 1019.3 0.0
01/05:00pm 13.3 9.2 -3.0 32 6.6 S 9 13 5 7 1019.5 1018.7 0.0
01/04:30pm 13.8 9.5 -4.4 28 7.2 SSW 9 20 5 11 1019.6 1018.8 0.0
01/04:00pm 13.9 9.2 -4.8 27 7.3 SSW 11 19 6 10 1019.2 1018.4 0.0
01/03:30pm 14.5 7.5 -3.3 29 7.2 SW 24 32 13 17 1018.7 1017.9 0.0
01/03:00pm 14.2 8.4 -5.0 26 7.5 SW 17 24 9 13 1018.5 1017.8 0.0
01/02:30pm 14.3 8.2 -3.5 29 7.2 S 19 30 10 16 1018.4 1017.7 0.0
01/02:00pm 14.3 8.0 -4.4 27 7.4 SW 20 35 11 19 1018.5 1017.8 0.0
01/01:30pm 13.8 7.1 -4.4 28 7.2 SW 22 43 12 23 1018.5 1017.8 0.0
01/01:00pm 13.9 7.7 -4.8 27 7.3 SW 19 33 10 18 1018.7 1017.9 0.0
01/12:30pm 13.8 7.6 -4.4 28 7.2 SSW 19 33 10 18 1018.7 1017.9 0.0
01/12:00pm 13.4 5.5 -5.2 27 7.1 SW 28 41 15 22 1018.9 1018.1 0.0
01/11:30am 12.6 5.7 -5.9 27 6.9 SW 22 32 12 17 1019.0 1018.2 0.0
01/11:00am 12.4 4.4 -5.6 28 6.8 WSW 28 41 15 22 1018.8 1018.0 0.0
01/10:30am 11.6 3.2 -5.8 29 6.5 WSW 30 39 16 21 1018.7 1017.9 0.0
01/10:00am 11.5 3.5 -5.4 30 6.3 SW 28 39 15 21 1018.5 1017.8 0.0
01/09:30am 11.4 5.3 -2.4 38 5.5 W 20 28 11 15 1018.1 1018.1 0.0
01/09:00am 10.2 4.0 -2.8 40 5.1 W 20 33 11 18 1018.0 1018.0 0.0
01/08:30am 9.2 2.3 -2.4 44 4.5 W 24 39 13 21 1017.7 1017.7 0.0
01/08:00am 8.5 0.4 -3.3 43 4.5 W 30 41 16 22 1017.1 1017.0 0.0
01/07:30am 7.9 0.7 -2.1 49 3.9 W 26 43 14 23 1016.8 1016.8 0.0
01/07:00am 7.1 0.4 -1.1 56 3.2 W 24 33 13 18 1016.3 1016.3 0.0
01/06:30am 6.7 0.0 -1.0 58 3.0 WNW 24 39 13 21 1016.0 1016.0 0.0
01/06:00am 6.3 -0.4 -1.3 58 3.0 WNW 24 33 13 18 1015.1 1015.1 0.0
01/05:30am 6.7 0.6 -2.2 53 3.4 WNW 20 28 11 15 1014.8 1014.8 0.0
01/05:00am 6.7 0.6 -2.7 51 3.6 WNW 20 33 11 18 1014.3 1014.2 0.0
01/04:30am 7.3 1.2 -2.4 50 3.7 W 20 28 11 15 1014.0 1013.9 0.0
01/04:00am 8.2 0.2 -2.4 47 4.1 W 30 50 16 27 1013.0 1012.9 0.0
01/03:51am 8.4 0.4 -2.2 47 4.1 WNW 30 50 16 27 1012.7 1012.6 0.0
01/03:30am 9.1 1.2 -1.6 47 4.3 WNW 30 46 16 25 1012.4 1012.3 0.0
01/03:00am 9.8 3.3 0.4 52 4.0 WNW 24 33 13 18 1011.5 1011.4 0.0
01/02:30am 11.1 4.3 1.1 50 4.3 WNW 26 39 14 21 1011.4 1011.3 0.0
01/02:00am 11.7 5.3 3.0 55 4.0 WNW 26 35 14 19 1011.4 1011.3 0.0
01/01:30am 12.2 6.8 4.4 59 3.7 WNW 22 37 12 20 1011.4 1011.3 0.0
01/01:00am 13.3 7.3 5.2 58 3.9 W 26 35 14 19 1011.3 1011.2 0.0
01/12:30am 14.5 6.7 4.8 52 4.7 WNW 35 50 19 27 1010.5 1010.4 0.0
01/12:00am 16.2 8.5 2.2 39 6.5 WNW 32 59 17 32 1009.5 1009.4 0.0
 
Date/Time
EST
Temp
°C
App
Temp
°C
Dew
Point
Rel
Hum
%
Delta-T
°C
Wind Press
QNH
hPa
Press
MSL
hPa
Rain
since 9 am
mm
Dir
 
Spd
km/h
Gust
km/h
Spd
kts
Gust
kts
30/11:57pm 15.8 8.8 1.9 39 6.4 WNW 28 54 15 29 1009.5 1009.4 0.0
30/11:30pm 16.6 9.1 1.5 36 6.9 NW 30 43 16 23 1008.6 1008.4 0.0
30/11:00pm 16.6 10.3 1.5 36 6.9 NW 24 32 13 17 1008.6 1008.4 0.0
30/10:30pm 16.9 10.7 2.1 37 6.9 NW 24 35 13 19 1008.8 1008.6 0.0
30/10:00pm 17.0 10.2 3.0 39 6.7 NW 28 39 15 21 1009.1 1009.0 0.0
30/09:30pm 17.2 10.0 3.1 39 6.7 NW 30 41 16 22 1009.3 1009.2 0.0
30/09:00pm 17.2 11.1 2.8 38 6.8 NW 24 37 13 20 1009.2 1009.1 0.0
30/08:30pm 17.4 11.9 1.8 35 7.2 NW 20 35 11 19 1009.4 1009.3 0.0
30/08:00pm 18.7 12.9 2.1 33 7.8 WNW 22 37 12 20 1009.5 1009.4 0.0
30/07:30pm 18.6 13.0 3.3 36 7.4 WNW 22 35 12 19 1009.3 1009.2 0.0
30/07:00pm 19.3 12.7 4.3 37 7.4 WNW 28 43 15 23 1009.1 1009.0 0.0
30/06:30pm 19.5 12.7 5.2 39 7.2 WNW 30 43 16 23 1009.1 1009.0 0.0
30/06:00pm 20.1 13.4 5.4 38 7.5 WNW 30 46 16 25 1008.7 1008.5 0.0
30/05:35pm 20.7 13.4 5.5 37 7.8 WNW 33 54 18 29 1008.6 1008.4 0.0
30/05:30pm 21.1 12.7 5.5 36 8.0 WNW 39 54 21 29 1008.5 1008.3 0.0
30/05:00pm 21.7 12.5 5.6 35 8.3 NW 43 65 23 35 1008.3 1008.2 0.0
30/04:32pm 22.1 13.7 5.5 34 8.6 NW 39 65 21 35 1008.2 1008.1 0.0
30/04:30pm 22.2 13.5 6.0 35 8.4 NW 41 57 22 31 1008.5 1008.3 0.0
30/04:10pm 22.3 13.1 5.3 33 8.7 WNW 43 61 23 33 1008.3 1008.2 0.0
30/04:00pm 22.6 13.3 6.0 34 8.7 WNW 44 59 24 32 1008.7 1008.5 0.0
30/03:30pm 23.0 13.3 5.9 33 8.9 WNW 46 70 25 38 1009.0 1008.8 0.0
30/03:00pm 23.6 14.9 7.7 36 8.6 NW 43 61 23 33 1009.4 1009.3 0.0
30/02:31pm 23.4 15.2 6.7 34 8.9 WNW 39 61 21 33 1009.4 1009.3 0.0
30/02:30pm 23.4 15.3 7.1 35 8.7 WNW 39 56 21 30 1009.5 1009.4 0.0
30/02:00pm 23.5 13.4 7.2 35 8.8 NW 50 70 27 38 1009.7 1009.6 0.0
30/01:30pm 23.4 13.9 6.7 34 8.9 WNW 46 67 25 36 1009.9 1009.8 0.0
30/01:00pm 23.9 15.1 7.1 34 9.0 WNW 43 63 23 34 1010.6 1010.5 0.0
30/12:30pm 23.0 13.6 5.4 32 9.1 NW 44 65 24 35 1010.7 1010.6 0.0
30/12:00pm 22.8 12.2 5.3 32 9.0 NW 50 69 27 37 1011.2 1011.1 0.0
30/11:32am 22.8 13.5 5.7 33 8.9 NW 44 63 24 34 1011.3 1011.2 0.0
30/11:30am 22.6 13.2 5.5 33 8.8 NW 44 59 24 32 1011.5 1011.4 0.0
30/11:09am 22.4 14.5 6.2 35 8.5 NW 37 63 20 34 1011.6 1011.5 0.0
30/11:00am 22.1 15.2 7.1 38 8.0 WNW 33 46 18 25 1012.1 1012.0 0.0
30/10:46am 21.7 13.1 6.4 37 8.0 NW 41 59 22 32 1012.1 1012.0 0.0
30/10:30am 21.7 12.8 6.8 38 7.8 WNW 43 56 23 30 1012.4 1012.3 0.0
30/10:03am 21.2 12.6 6.3 38 7.8 NW 41 59 22 32 1012.7 1012.6 0.0
30/10:00am 20.9 11.8 6.1 38 7.7 NW 43 59 23 32 1012.6 1012.5 0.0
30/09:30am 20.4 12.5 6.0 39 7.4 WNW 37 54 20 29 1013.0 1012.9 0.0
30/09:22am 20.5 13.7 6.8 41 7.2 WNW 32 52 17 28 1013.1 1013.0 0.0
30/09:00am 19.7 13.4 7.4 45 6.5 NW 30 43 16 23 1013.3 1013.3 0.0
30/08:30am 18.4 13.9 6.9 47 5.9 NW 20 30 11 16 1013.6 1013.5 0.0
30/08:00am 17.1 14.1 7.5 53 5.0 NNW 13 19 7 10 1013.8 1013.7 0.0
30/07:30am 15.7 13.2 8.0 60 4.0 NW 11 19 6 10 1013.8 1013.7 0.0
30/07:00am 13.1 10.8 5.8 61 3.6 NNW 7 9 4 5 1013.9 1013.8 0.0
30/06:30am 12.1 9.8 5.9 66 3.0 NNW 7 9 4 5 1013.9 1013.8 0.0
30/06:00am 10.0 8.2 5.6 74 2.1 NNW 4 6 2 3 1013.7 1013.6 0.0
30/05:30am 11.0 8.8 6.2 72 2.3 NNW 7 11 4 6 1013.6 1013.5 0.0
30/05:00am 11.2 8.2 6.1 71 2.5 NNW 11 15 6 8 1013.2 1013.2 0.0
30/04:30am 11.6 9.0 6.3 70 2.6 NW 9 11 5 6 1013.2 1013.2 0.0
30/04:00am 11.9 9.8 6.8 71 2.5 NW 7 7 4 4 1013.3 1013.3 0.0
30/03:30am 12.1 10.2 7.4 73 2.4 NW 7 7 4 4 1013.6 1013.5 0.0
30/03:00am 11.8 10.0 7.9 77 2.0 NW 7 9 4 5 1013.8 1013.7 0.0
30/02:30am 11.5 9.8 8.5 82 1.5 NW 7 9 4 5 1014.2 1014.1 0.0
30/02:00am 10.9 9.2 8.3 84 1.3 NW 7 9 4 5 1014.5 1014.4 0.0
30/01:30am 11.0 9.8 8.1 82 1.5 NW 4 6 2 3 1014.8 1014.8 0.0
30/01:00am 10.8 9.6 7.9 82 1.5 NW 4 6 2 3 1015.0 1015.0 0.0
30/12:30am 10.7 9.3 7.4 80 1.6 NW 4 4 2 2 1015.1 1015.1 0.0
30/12:00am 11.0 9.7 7.5 79 1.7 NW 4 4 2 2 1015.5 1015.4 0.0
 
Date/Time
EST
Temp
°C
App
Temp
°C
Dew
Point
Rel
Hum
%
Delta-T
°C
Wind Press
QNH
hPa
Press
MSL
hPa
Rain
since 9 am
mm
Dir
 
Spd
km/h
Gust
km/h
Spd
kts
Gust
kts
29/11:30pm 11.8 11.1 8.5 80 1.7 NW 2 4 1 2 1015.7 1015.6 0.0
29/11:00pm 11.4 10.4 7.3 76 2.0 NW 2 4 1 2 1015.9 1015.8 0.0
29/10:30pm 12.5 11.2 7.6 72 2.5 NW 4 6 2 3 1016.1 1016.1 0.0
29/10:00pm 12.3 11.4 7.6 73 2.4 NW 2 4 1 2 1016.3 1016.3 0.0
29/09:30pm 12.7 11.4 7.6 71 2.6 NW 4 6 2 3 1016.4 1016.4 0.0
29/09:00pm 13.2 12.3 7.9 70 2.7 NW 2 4 1 2 1016.5 1016.5 0.0
29/08:30pm 13.9 13.0 7.7 66 3.2 NW 2 4 1 2 1016.4 1016.4 0.0
29/08:00pm 14.5 13.2 7.5 63 3.6 NW 4 6 2 3 1016.4 1016.4 0.0
29/07:30pm 15.7 14.6 6.7 55 4.6 NW 2 4 1 2 1016.2 1016.2 0.0
29/07:00pm 17.4 14.5 6.6 49 5.5 NW 11 13 6 7 1015.9 1015.8 0.0
29/06:30pm 18.2 15.3 6.4 46 6.0 NW 11 13 6 7 1015.8 1015.7 0.0
29/06:00pm 19.2 15.8 6.0 42 6.7 NW 13 22 7 12 1015.5 1015.4 0.0
29/05:30pm 20.7 16.7 6.6 40 7.4 NW 17 28 9 15 1015.0 1015.0 0.0
29/05:00pm 21.8 16.1 6.9 38 7.9 NW 26 37 14 20 1014.6 1014.6 0.0
29/04:30pm 22.4 16.2 6.2 35 8.5 NW 28 37 15 20 1014.1 1014.0 0.0

Other Formats:

Comma delimited format used in spreadsheet applications
http://www.bom.gov.au/fwo/IDN60801/IDN60801.94943.axf

JavaScript Object Notation format (JSON) in row-major order
http://www.bom.gov.au/fwo/IDN60801/IDN60801.94943.json